« Back
NWS Peachtree City, Ga » Text Product » ATL Terminal Aerodrome Forecast


Printer-friendly Version
Current Version              Previous Versions:   1  2  3  4  5  6  7  8  9  

Terminal Aerodrome Forecast

784
FTUS42 KFFC 300735 AAA
TAFATL
TAF AMD
KATL 300735Z 3008/3112 29003KT P6SM FEW015 SCT070 BKN100
     FM301400 29007KT P6SM SCT035
     FM301600 27009KT P6SM SCT050 PROB30 3020/3024 5SM -TSRA
      BKN035CB
     FM310000 24005KT P6SM SCT070 SCT250=



USA.gov is the U.S. government's official web portal to all federal, state and local government web resources and services.